Flight Track Log - Related Links

Times and Time Zones

All times are in EDT time to prevent confusion due to time zone crossing. See the AWI3704 flight status page for this flight to view local times or setup timezone preferences in your user account.

Time Position Orientation Groundspeed Altitude Reporting Facility
EDT Latitude Longitude Course Direction KTS MPH feet Rate Location/Type
Sat 11:38:55 AM 42.8042 -73.8664 309° West 222 255 3,400  Level Boston Center
Sat 11:40:00 AM 42.7334 -74.1641 270° West  Level FlightAware Approximate
Sat 11:40:15 AM 42.7922 -73.9764 262° West 255 293 5,600  Level Boston Center
Sat 11:41:00 AM 42.7333 -74.2855 270° West  Level FlightAware Approximate
Sat 11:41:15 AM 42.7494 -74.0544 233° Southwest 261 300 7,900  Level Boston Center
Sat 11:42:00 AM 42.6790 -74.3758 220° Southwest  Level FlightAware Approximate
Sat 11:42:15 AM 42.6942 -74.1406 229° Southwest 270 311 10,200  Level Boston Center
Sat 11:43:00 AM 42.6103 -74.4530 220° Southwest  Level FlightAware Approximate
Sat 11:43:15 AM 42.6469 -74.2183 230° Southwest 288 331 11,800  Level Boston Center
Sat 11:44:15 AM 42.5831 -74.3153 228° Southwest 309 356 13,900 1,850 Climbing Boston Center
Sat 11:45:15 AM 42.5231 -74.4092 229° Southwest 326 375 15,500 1,050 Climbing Boston Center
Sat 11:46:15 AM 42.4631 -74.5031 229° Southwest 335 386 16,000 250 Climbing Boston Center
Sat 11:47:15 AM 42.3986 -74.6050 229° Southwest 348 400 16,000  Level Boston Center
Sat 11:48:15 AM 42.3403 -74.7014 231° Southwest 348 400 16,000  Level Boston Center
Sat 11:50:29 AM 42.2158 -74.8981 230° Southwest 344 396 16,000  Level New York Center
Sat 11:51:27 AM 42.1378 -74.9883 221° Southwest 344 396 16,000  Level New York Center
Sat 11:52:27 AM 42.0625 -75.0561 214° Southwest 344 396 16,000  Level New York Center
Sat 11:53:29 AM 41.9897 -75.1156 211° Southwest 344 396 16,000  Level New York Center
Sat 11:54:27 AM 41.9081 -75.1825 211° Southwest 350 403 16,000  Level New York Center
Sat 11:55:27 AM 41.8178 -75.2544 211° Southwest 350 403 16,000  Level New York Center
Sat 11:56:28 AM 41.7361 -75.3214 211° Southwest 350 403 16,000  Level New York Center
Sat 11:57:27 AM 41.6631 -75.3803 211° Southwest 350 403 16,000 -744 Level New York Center
Sat 11:58:29 AM 41.5836 -75.4439 211° Southwest 350 403 14,500 -1,574 Descending New York Center
Sat 11:59:29 AM 41.4997 -75.5103 211° Southwest 337 388 12,800 -1,271 Descending New York Center
Sat 12:00:27 PM 41.4267 -75.5686 211° Southwest 325 374 12,000 -403 Descending New York Center
Sat 12:01:28 PM 41.3469 -75.6319 211° Southwest 325 374 12,000  Level New York Center
Sat 12:02:28 PM 41.2656 -75.6842 206° Southwest 330 380 12,000  Level New York Center
Sat 12:03:29 PM 41.1864 -75.6867 181° South 316 364 12,000 -198 Level New York Center
Sat 12:04:29 PM 41.0989 -75.6886 181° South 323 372 11,600 -950 Descending New York Center
Sat 12:05:29 PM 41.0003 -75.6539 165° South 328 377 10,100 -807 Descending New York Center
Sat 12:06:28 PM 40.9161 -75.6203 163° South 328 377 10,000 -51 Descending New York Center
Sat 12:07:27 PM 40.8425 -75.5906 163° South 320 368 10,000  Level New York Center
Sat 12:08:27 PM 40.7583 -75.5572 163° South 314 361 10,000  Level New York Center
Sat 12:09:28 PM 40.6783 -75.5242 163° South 314 361 10,000  Level New York Center
Sat 12:10:29 PM 40.5983 -75.4914 163° South 308 354 10,000  Level New York Center
Sat 12:11:27 PM 40.5225 -75.4614 163° South 302 348 10,000  Level New York Center
Sat 12:12:28 PM 40.4425 -75.4289 163° South 282 325 10,000 -397 Level New York Center
Sat 12:13:28 PM 40.3814 -75.3975 159° South 249 287 9,200 -1,100 Descending New York Center
Sat 12:14:28 PM 40.3228 -75.4044 185° South 220 253 7,800 -1,388 Descending New York Center
Sat 12:15:29 PM 40.2722 -75.4119 186° South 215 247 6,400 -893 Descending New York Center
Sat 12:16:29 PM 40.2186 -75.4003 171° South 209 241 6,000 -843 Descending New York Center
Sat 12:17:30 PM 40.1633 -75.3775 163° South 199 229 4,700 -1,361 Descending New York Center
Sat 12:18:28 PM 40.1161 -75.3525 158° South 186 214 3,300 -807 Descending New York Center
Sat 12:19:29 PM 40.0672 -75.3278 159° South 186 214 3,100 -101 Descending New York Center
Sat 12:20:27 PM 40.0528 -75.2697 108° East 161 185 3,100 -46 Level New York Center
Sat 12:21:39 PM 40.0833 -75.1833 65° Northeast 208 239 3,000 -44 Descending Philadelphia TRACON
Sat 12:22:44 PM 40.1167 -75.2500 303° West 199 229 3,000 48 Level Philadelphia TRACON
Sat 12:23:45 PM 40.0833 -75.3000 229° Southwest 180 207 3,100 98 Climbing Philadelphia TRACON

Login

Don't have an account? Register now (free) for customized features, flight alerts, and more!